Time;durP1;ratioP1;P1;durP2;ratioP2;P2;SDS_P1;SDS_P2;PMS_P1;PMS_P2;Temp;Humidity;BMP_temperature;BMP_pressure;BME280_temperature;BME280_humidity;BME280_pressure;Samples;Min_cycle;Max_cycle;Signal;HPM_P1;HPM_P2
2024/01/08 00:00:22;;;;;;;6.18;3.40;;;;;;;;;;4954722;28;20027;-67
2024/01/08 00:02:47;;;;;;;11.02;4.30;;;;;;;;;;4964159;28;20067;-68
2024/01/08 00:05:13;;;;;;;12.40;3.88;;;;;;;;;;4961903;28;20027;-69
2024/01/08 00:07:38;;;;;;;9.75;4.00;;;;;;;;;;4955717;28;20018;-69
2024/01/08 00:10:04;;;;;;;8.32;4.97;;;;;;;;;;4966724;28;20030;-69
2024/01/08 00:12:29;;;;;;;8.35;3.47;;;;;;;;;;4953680;28;20118;-69
2024/01/08 00:14:54;;;;;;;8.30;3.80;;;;;;;;;;4960989;28;20133;-69
2024/01/08 00:17:19;;;;;;;8.88;3.88;;;;;;;;;;4967673;28;20504;-69
2024/01/08 00:19:45;;;;;;;7.50;3.83;;;;;;;;;;4968411;28;20035;-69
2024/01/08 00:22:10;;;;;;;8.23;3.95;;;;;;;;;;4969190;28;20087;-68
2024/01/08 00:24:35;;;;;;;9.98;4.40;;;;;;;;;;4955216;28;20042;-69
2024/01/08 00:27:00;;;;;;;7.63;3.90;;;;;;;;;;4954820;28;20027;-68
2024/01/08 00:29:25;;;;;;;8.68;4.50;;;;;;;;;;4958063;28;20439;-69
2024/01/08 00:31:51;;;;;;;8.90;3.95;;;;;;;;;;4966577;28;20116;-70
2024/01/08 00:34:16;;;;;;;8.15;4.50;;;;;;;;;;4964279;28;20098;-69
2024/01/08 00:36:41;;;;;;;8.77;4.13;;;;;;;;;;4953356;28;20015;-68
2024/01/08 00:39:09;;;;;;;14.70;4.55;;;;;;;;;;4961802;28;20425;-68
2024/01/08 00:41:34;;;;;;;8.40;4.00;;;;;;;;;;4954425;28;20023;-69
2024/01/08 00:43:59;;;;;;;8.65;4.35;;;;;;;;;;4960219;28;20026;-68
2024/01/08 00:46:24;;;;;;;9.75;5.10;;;;;;;;;;4961626;28;20090;-68
2024/01/08 00:48:50;;;;;;;8.13;4.60;;;;;;;;;;4960438;28;20072;-68
2024/01/08 00:51:15;;;;;;;9.63;4.88;;;;;;;;;;4961558;28;20023;-68
2024/01/08 00:53:40;;;;;;;12.20;4.75;;;;;;;;;;4955500;28;20035;-69
2024/01/08 00:56:05;;;;;;;8.18;3.83;;;;;;;;;;4957970;28;20120;-68
2024/01/08 00:58:30;;;;;;;10.45;3.97;;;;;;;;;;4952615;28;20031;-70
2024/01/08 01:00:56;;;;;;;8.30;4.38;;;;;;;;;;4953937;28;20030;-70
2024/01/08 01:03:21;;;;;;;11.32;4.55;;;;;;;;;;4959207;28;20027;-70
2024/01/08 01:05:47;;;;;;;9.45;3.75;;;;;;;;;;4963370;28;20385;-69
2024/01/08 01:08:12;;;;;;;11.38;4.90;;;;;;;;;;4964178;28;20029;-69
2024/01/08 01:10:38;;;;;;;10.20;4.82;;;;;;;;;;4952105;28;20131;-69
2024/01/08 01:13:04;;;;;;;7.70;4.18;;;;;;;;;;4957650;28;20098;-70
2024/01/08 01:15:29;;;;;;;10.02;4.43;;;;;;;;;;4958313;28;20390;-70
2024/01/08 01:17:54;;;;;;;6.40;3.40;;;;;;;;;;4954571;28;20035;-69
2024/01/08 01:20:19;;;;;;;7.25;3.85;;;;;;;;;;4969777;28;20022;-70
2024/01/08 01:22:45;;;;;;;9.35;4.55;;;;;;;;;;4958480;28;20110;-69
2024/01/08 01:25:10;;;;;;;8.57;4.18;;;;;;;;;;4960800;28;20034;-69
2024/01/08 01:27:35;;;;;;;9.45;4.50;;;;;;;;;;4958154;28;20672;-69
2024/01/08 01:30:00;;;;;;;8.63;4.15;;;;;;;;;;4964106;28;20073;-69
2024/01/08 01:32:25;;;;;;;9.85;4.97;;;;;;;;;;4957151;28;20033;-69
2024/01/08 01:34:50;;;;;;;9.48;5.88;;;;;;;;;;4962188;28;20027;-69
2024/01/08 01:37:16;;;;;;;12.18;5.07;;;;;;;;;;4969211;28;20097;-69
2024/01/08 01:39:41;;;;;;;10.77;4.20;;;;;;;;;;4957361;28;20536;-69
2024/01/08 01:42:06;;;;;;;10.00;4.65;;;;;;;;;;4960823;28;20015;-69
2024/01/08 01:44:31;;;;;;;15.23;4.78;;;;;;;;;;4965186;28;20046;-69
2024/01/08 01:46:57;;;;;;;10.80;4.70;;;;;;;;;;4961453;28;20659;-69
2024/01/08 01:49:23;;;;;;;9.15;4.72;;;;;;;;;;4969210;28;20045;-69
2024/01/08 01:51:48;;;;;;;12.52;5.30;;;;;;;;;;4965888;28;20030;-70
2024/01/08 01:54:15;;;;;;;10.85;5.18;;;;;;;;;;4960746;28;20031;-69
2024/01/08 01:56:41;;;;;;;9.15;4.75;;;;;;;;;;4957341;28;20133;-70
2024/01/08 01:59:06;;;;;;;13.68;4.80;;;;;;;;;;4954384;28;20047;-69
2024/01/08 02:01:33;;;;;;;7.57;4.55;;;;;;;;;;4952797;28;20066;-69
2024/01/08 02:04:00;;;;;;;8.18;4.22;;;;;;;;;;4954488;28;20060;-69
2024/01/08 02:06:26;;;;;;;12.82;5.18;;;;;;;;;;4961295;28;20027;-70
2024/01/08 02:08:52;;;;;;;9.55;5.28;;;;;;;;;;4962451;28;20030;-69
2024/01/08 02:11:18;;;;;;;9.00;4.38;;;;;;;;;;4956273;28;20019;-70
2024/01/08 02:13:43;;;;;;;8.38;3.95;;;;;;;;;;4953680;28;20461;-70
2024/01/08 02:16:09;;;;;;;7.28;3.88;;;;;;;;;;4960765;28;20094;-69
2024/01/08 02:18:34;;;;;;;10.25;4.70;;;;;;;;;;4955823;28;20488;-69
2024/01/08 02:20:59;;;;;;;8.80;3.90;;;;;;;;;;4967495;28;20092;-69
2024/01/08 02:23:24;;;;;;;7.72;4.13;;;;;;;;;;4973720;28;20023;-70
2024/01/08 02:25:49;;;;;;;9.45;4.75;;;;;;;;;;4973283;28;20460;-70
2024/01/08 02:28:15;;;;;;;7.75;4.22;;;;;;;;;;4957935;28;20477;-69
2024/01/08 02:30:40;;;;;;;7.95;3.60;;;;;;;;;;4956126;28;20094;-69
2024/01/08 02:33:05;;;;;;;10.30;4.63;;;;;;;;;;4957634;28;20517;-69
2024/01/08 02:35:30;;;;;;;11.95;5.30;;;;;;;;;;4959689;28;20104;-69
2024/01/08 02:37:55;;;;;;;10.18;4.53;;;;;;;;;;4967932;28;20526;-69
2024/01/08 02:40:21;;;;;;;6.82;4.03;;;;;;;;;;4972311;28;20018;-69
2024/01/08 02:42:46;;;;;;;14.75;4.57;;;;;;;;;;4959930;28;20027;-69
2024/01/08 02:45:11;;;;;;;11.98;5.15;;;;;;;;;;4960953;28;20110;-69
2024/01/08 02:47:40;;;;;;;6.47;3.42;;;;;;;;;;4961390;28;20121;-69
2024/01/08 02:50:05;;;;;;;10.57;4.03;;;;;;;;;;4957479;28;20118;-69
2024/01/08 02:52:31;;;;;;;10.63;3.78;;;;;;;;;;4967963;28;20023;-69
2024/01/08 02:54:56;;;;;;;7.97;4.10;;;;;;;;;;4970913;28;20083;-69
2024/01/08 02:57:21;;;;;;;9.40;4.60;;;;;;;;;;4965851;28;20035;-69
2024/01/08 02:59:46;;;;;;;7.30;4.28;;;;;;;;;;4960008;28;20027;-69
2024/01/08 03:02:12;;;;;;;8.63;4.50;;;;;;;;;;4968105;28;20465;-70
2024/01/08 03:04:37;;;;;;;17.55;4.80;;;;;;;;;;4958887;28;20087;-70
2024/01/08 03:07:02;;;;;;;11.32;4.70;;;;;;;;;;4970150;28;20164;-70
2024/01/08 03:09:27;;;;;;;10.98;4.97;;;;;;;;;;4963764;28;20022;-69
2024/01/08 03:11:53;;;;;;;10.52;4.55;;;;;;;;;;4963345;28;20046;-69
2024/01/08 03:14:18;;;;;;;10.73;4.75;;;;;;;;;;4966472;28;20052;-69
2024/01/08 03:16:43;;;;;;;13.27;4.85;;;;;;;;;;4966772;28;20027;-69
2024/01/08 03:19:08;;;;;;;8.27;4.43;;;;;;;;;;4964838;28;20185;-69
2024/01/08 03:21:33;;;;;;;9.85;4.82;;;;;;;;;;4959086;28;20027;-69
2024/01/08 03:23:58;;;;;;;11.55;4.60;;;;;;;;;;4970955;28;20035;-69
2024/01/08 03:26:24;;;;;;;10.95;5.22;;;;;;;;;;4967338;28;20494;-70
2024/01/08 03:28:49;;;;;;;8.73;4.93;;;;;;;;;;4958636;28;20107;-69
2024/01/08 03:31:14;;;;;;;9.88;4.57;;;;;;;;;;4963148;28;20018;-69
2024/01/08 03:33:39;;;;;;;11.50;5.05;;;;;;;;;;4960798;28;20066;-69
2024/01/08 03:36:08;;;;;;;14.00;4.85;;;;;;;;;;4956130;28;20110;-69
2024/01/08 03:38:33;;;;;;;8.50;4.45;;;;;;;;;;4957096;28;20683;-69
2024/01/08 03:40:58;;;;;;;14.15;5.10;;;;;;;;;;4972596;28;20114;-69
2024/01/08 03:43:23;;;;;;;10.02;4.90;;;;;;;;;;4971816;28;20022;-70
2024/01/08 03:45:48;;;;;;;10.15;4.40;;;;;;;;;;4968753;28;20437;-69
2024/01/08 03:48:14;;;;;;;13.27;4.70;;;;;;;;;;4959147;28;20640;-69
2024/01/08 03:50:39;;;;;;;12.30;5.32;;;;;;;;;;4965633;28;20111;-69
2024/01/08 03:53:04;;;;;;;8.63;4.78;;;;;;;;;;4964183;28;20037;-69
2024/01/08 03:55:30;;;;;;;10.70;5.05;;;;;;;;;;4971572;28;20033;-69
2024/01/08 03:57:55;;;;;;;11.18;5.35;;;;;;;;;;4965710;28;20065;-69
2024/01/08 04:00:20;;;;;;;11.52;5.40;;;;;;;;;;4972423;28;20047;-69
2024/01/08 04:02:45;;;;;;;10.73;5.13;;;;;;;;;;4963341;28;20069;-69
2024/01/08 04:05:11;;;;;;;11.50;5.35;;;;;;;;;;4973669;28;20038;-69
2024/01/08 04:07:37;;;;;;;9.20;4.90;;;;;;;;;;4964610;28;20442;-70
2024/01/08 04:10:04;;;;;;;12.13;5.43;;;;;;;;;;4956775;28;20106;-69
2024/01/08 04:12:29;;;;;;;14.43;6.15;;;;;;;;;;4963757;28;20023;-70
2024/01/08 04:14:54;;;;;;;13.25;6.32;;;;;;;;;;4960355;28;20027;-69
2024/01/08 04:17:20;;;;;;;12.43;5.77;;;;;;;;;;4963723;28;20030;-69
2024/01/08 04:19:45;;;;;;;21.63;5.82;;;;;;;;;;4964476;28;20279;-69
2024/01/08 04:22:10;;;;;;;14.48;6.05;;;;;;;;;;4956537;28;20042;-70
2024/01/08 04:24:35;;;;;;;13.27;5.90;;;;;;;;;;4967385;28;20031;-69
2024/01/08 04:27:00;;;;;;;13.25;6.03;;;;;;;;;;4964138;28;20153;-70
2024/01/08 04:29:25;;;;;;;13.27;6.05;;;;;;;;;;4968903;28;20027;-69
2024/01/08 04:31:51;;;;;;;10.63;5.65;;;;;;;;;;4967667;28;20406;-69
2024/01/08 04:34:16;;;;;;;14.70;6.30;;;;;;;;;;4964892;28;20165;-70
2024/01/08 04:36:43;;;;;;;15.77;6.38;;;;;;;;;;4964550;28;20031;-69
2024/01/08 04:39:08;;;;;;;14.23;5.85;;;;;;;;;;4960172;28;20031;-69
2024/01/08 04:41:33;;;;;;;13.20;6.30;;;;;;;;;;4960083;28;20027;-70
2024/01/08 04:43:58;;;;;;;12.65;5.65;;;;;;;;;;4964131;28;20490;-70
2024/01/08 04:46:24;;;;;;;14.70;7.05;;;;;;;;;;4958063;28;20079;-69
2024/01/08 04:48:49;;;;;;;14.57;7.35;;;;;;;;;;4963013;28;20027;-69
2024/01/08 04:51:25;;;;;;;16.48;6.55;;;;;;;;;;4965393;28;20029;-69
2024/01/08 04:53:50;;;;;;;15.13;7.25;;;;;;;;;;4957914;28;20023;-69
2024/01/08 04:56:19;;;;;;;20.67;7.40;;;;;;;;;;4959408;28;20399;-70
2024/01/08 04:58:44;;;;;;;13.45;6.53;;;;;;;;;;4956997;28;20015;-70
2024/01/08 05:01:10;;;;;;;15.98;6.80;;;;;;;;;;4964952;28;20033;-69
2024/01/08 05:03:35;;;;;;;16.48;7.50;;;;;;;;;;4958493;28;20055;-69
2024/01/08 05:06:00;;;;;;;14.50;7.27;;;;;;;;;;4964519;28;20042;-70
2024/01/08 05:08:25;;;;;;;13.93;7.37;;;;;;;;;;4958545;28;20492;-69
2024/01/08 05:10:50;;;;;;;15.32;6.55;;;;;;;;;;4960448;28;20281;-69
2024/01/08 05:13:15;;;;;;;14.70;7.70;;;;;;;;;;4958707;28;20377;-69
2024/01/08 05:15:41;;;;;;;14.75;7.10;;;;;;;;;;4954576;28;20559;-70
2024/01/08 05:18:06;;;;;;;13.38;7.20;;;;;;;;;;4962270;28;20114;-69
2024/01/08 05:20:31;;;;;;;16.45;7.70;;;;;;;;;;4961595;28;20031;-69
2024/01/08 05:22:57;;;;;;;17.10;8.18;;;;;;;;;;4968942;28;20460;-69
2024/01/08 05:25:22;;;;;;;14.55;7.63;;;;;;;;;;4960956;28;20026;-70
2024/01/08 05:27:47;;;;;;;15.30;7.22;;;;;;;;;;4964441;28;20041;-70
2024/01/08 05:30:12;;;;;;;15.68;7.25;;;;;;;;;;4967951;28;20431;-70
2024/01/08 05:32:38;;;;;;;16.02;7.30;;;;;;;;;;4963414;28;20371;-70
2024/01/08 05:35:03;;;;;;;18.35;7.13;;;;;;;;;;4964053;28;20569;-70
2024/01/08 05:37:28;;;;;;;15.65;7.43;;;;;;;;;;4956536;28;20132;-70
2024/01/08 05:39:54;;;;;;;16.85;7.38;;;;;;;;;;4964251;28;20023;-70
2024/01/08 05:42:19;;;;;;;15.82;6.78;;;;;;;;;;4960583;28;20035;-70
2024/01/08 05:44:44;;;;;;;14.07;6.85;;;;;;;;;;4954532;28;20023;-70
2024/01/08 05:47:09;;;;;;;13.77;7.03;;;;;;;;;;4956026;28;20113;-69
2024/01/08 05:49:34;;;;;;;16.65;7.03;;;;;;;;;;4953732;28;20024;-70
2024/01/08 05:51:59;;;;;;;14.90;6.72;;;;;;;;;;4961886;28;20041;-70
2024/01/08 05:54:25;;;;;;;17.45;7.70;;;;;;;;;;4966037;28;20102;-70
2024/01/08 05:56:50;;;;;;;12.15;7.13;;;;;;;;;;4966970;28;20027;-69
2024/01/08 05:59:15;;;;;;;15.35;7.30;;;;;;;;;;4954625;28;20038;-70
2024/01/08 06:01:42;;;;;;;13.88;6.50;;;;;;;;;;4958596;28;20101;-70
2024/01/08 06:04:07;;;;;;;13.93;6.80;;;;;;;;;;4961699;28;20020;-70
2024/01/08 06:06:32;;;;;;;13.63;6.45;;;;;;;;;;4955604;28;20038;-70
2024/01/08 06:08:57;;;;;;;15.52;6.72;;;;;;;;;;4955553;28;20133;-70
2024/01/08 06:11:24;;;;;;;15.95;5.78;;;;;;;;;;4969830;28;20065;-70
2024/01/08 06:13:49;;;;;;;16.80;6.70;;;;;;;;;;4963211;28;20102;-69
2024/01/08 06:16:15;;;;;;;15.52;6.45;;;;;;;;;;4963247;28;20102;-70
2024/01/08 06:18:41;;;;;;;10.50;6.20;;;;;;;;;;4957353;28;20386;-70
2024/01/08 06:21:06;;;;;;;16.27;6.30;;;;;;;;;;4961800;28;20110;-69
2024/01/08 06:23:32;;;;;;;11.25;5.57;;;;;;;;;;4962257;28;20099;-69
2024/01/08 06:25:57;;;;;;;13.82;6.35;;;;;;;;;;4963104;28;20066;-70
2024/01/08 06:28:22;;;;;;;14.55;5.45;;;;;;;;;;4967890;28;20023;-70
2024/01/08 06:30:47;;;;;;;13.35;6.07;;;;;;;;;;4959924;28;20546;-70
2024/01/08 06:33:12;;;;;;;10.10;5.40;;;;;;;;;;4966356;28;20041;-70
2024/01/08 06:35:39;;;;;;;16.85;6.13;;;;;;;;;;4966671;28;20102;-69
2024/01/08 06:38:05;;;;;;;17.63;6.53;;;;;;;;;;4961970;28;20056;-70
2024/01/08 06:40:30;;;;;;;21.77;7.80;;;;;;;;;;4955263;28;20088;-70
2024/01/08 06:42:55;;;;;;;11.18;5.28;;;;;;;;;;4964336;28;20113;-70
2024/01/08 06:45:20;;;;;;;15.65;6.82;;;;;;;;;;4969525;28;20022;-69
2024/01/08 06:47:45;;;;;;;13.02;5.30;;;;;;;;;;4961305;28;20393;-70
2024/01/08 06:50:11;;;;;;;12.75;5.80;;;;;;;;;;4965131;28;20485;-70
2024/01/08 06:52:36;;;;;;;10.00;5.15;;;;;;;;;;4964651;28;20055;-70
2024/01/08 06:55:01;;;;;;;13.57;5.60;;;;;;;;;;4958413;28;20966;-70
2024/01/08 06:57:26;;;;;;;13.63;6.38;;;;;;;;;;4968605;28;20397;-70
2024/01/08 06:59:51;;;;;;;13.02;6.38;;;;;;;;;;4968469;28;20042;-70
2024/01/08 07:02:17;;;;;;;10.20;3.70;;;;;;;;;;4966221;28;20106;-69
2024/01/08 07:04:42;;;;;;;12.68;5.97;;;;;;;;;;4956356;28;20023;-70
2024/01/08 07:07:07;;;;;;;13.32;6.05;;;;;;;;;;4960958;28;20019;-70
2024/01/08 07:09:32;;;;;;;13.00;6.32;;;;;;;;;;4964087;28;20034;-70
2024/01/08 07:11:58;;;;;;;14.57;5.55;;;;;;;;;;4957879;28;20030;-69
2024/01/08 07:14:23;;;;;;;13.10;6.13;;;;;;;;;;4962410;28;20525;-69
2024/01/08 07:16:48;;;;;;;11.43;5.55;;;;;;;;;;4966521;28;20047;-70
2024/01/08 07:19:13;;;;;;;12.90;5.43;;;;;;;;;;4965681;28;20049;-70
2024/01/08 07:21:38;;;;;;;9.40;4.97;;;;;;;;;;4952565;28;20112;-70
2024/01/08 07:24:04;;;;;;;7.72;4.13;;;;;;;;;;4969017;28;20034;-70
2024/01/08 07:26:29;;;;;;;7.72;4.07;;;;;;;;;;4965954;28;20026;-70
2024/01/08 07:28:54;;;;;;;13.32;4.32;;;;;;;;;;4969409;28;20042;-70
2024/01/08 07:31:20;;;;;;;10.82;4.25;;;;;;;;;;4968290;28;20034;-70
2024/01/08 07:33:45;;;;;;;13.30;5.25;;;;;;;;;;4961292;28;20090;-70
2024/01/08 07:36:11;;;;;;;9.63;4.72;;;;;;;;;;4969920;28;20030;-70
2024/01/08 07:38:36;;;;;;;8.48;4.45;;;;;;;;;;4967285;28;20042;-70
2024/01/08 07:41:02;;;;;;;9.05;4.60;;;;;;;;;;4976127;28;20084;-70
2024/01/08 07:43:27;;;;;;;9.43;4.72;;;;;;;;;;4968022;28;20550;-69
2024/01/08 07:45:53;;;;;;;10.07;5.05;;;;;;;;;;4964297;28;20572;-70
2024/01/08 07:48:18;;;;;;;10.43;4.72;;;;;;;;;;4961390;28;20022;-70
2024/01/08 07:50:44;;;;;;;10.10;5.10;;;;;;;;;;4962130;28;20011;-70
2024/01/08 07:53:09;;;;;;;7.57;4.55;;;;;;;;;;4965055;28;20030;-70
2024/01/08 07:55:34;;;;;;;11.48;4.00;;;;;;;;;;4968196;28;20027;-68
2024/01/08 07:57:59;;;;;;;10.50;4.10;;;;;;;;;;4974048;28;20553;-70
2024/01/08 08:00:25;;;;;;;9.38;4.70;;;;;;;;;;4966122;28;20072;-70
2024/01/08 08:02:50;;;;;;;11.32;3.75;;;;;;;;;;4962544;28;20037;-70
2024/01/08 08:05:16;;;;;;;8.50;4.28;;;;;;;;;;4971010;28;20532;-70
2024/01/08 08:07:41;;;;;;;9.38;4.32;;;;;;;;;;4966633;28;20023;-70
2024/01/08 08:10:06;;;;;;;7.20;3.40;;;;;;;;;;4968424;28;20046;-70
2024/01/08 08:12:32;;;;;;;6.72;4.20;;;;;;;;;;4968114;28;20035;-70
2024/01/08 08:14:58;;;;;;;9.80;5.18;;;;;;;;;;4968691;28;20055;-70
2024/01/08 08:17:23;;;;;;;8.25;3.85;;;;;;;;;;4964839;28;20097;-70
2024/01/08 08:19:49;;;;;;;7.78;4.22;;;;;;;;;;4959307;28;20118;-70
2024/01/08 08:22:14;;;;;;;9.32;3.80;;;;;;;;;;4959584;28;20034;-70
2024/01/08 08:24:39;;;;;;;11.82;5.15;;;;;;;;;;4957109;28;20042;-68
2024/01/08 08:27:05;;;;;;;9.40;4.18;;;;;;;;;;4969794;28;20026;-68
2024/01/08 08:29:31;;;;;;;10.55;4.22;;;;;;;;;;4961761;28;20015;-68
2024/01/08 08:31:56;;;;;;;5.60;3.20;;;;;;;;;;4976138;28;20023;-68
2024/01/08 08:34:22;;;;;;;6.80;4.13;;;;;;;;;;4973007;28;20327;-68
2024/01/08 08:36:47;;;;;;;10.02;4.28;;;;;;;;;;4965070;28;20125;-68
2024/01/08 08:39:15;;;;;;;8.55;4.88;;;;;;;;;;4965775;28;20052;-66
2024/01/08 08:41:40;;;;;;;8.52;4.00;;;;;;;;;;4968290;28;20023;-66
2024/01/08 08:44:05;;;;;;;8.48;3.95;;;;;;;;;;4972066;28;20120;-66
2024/01/08 08:46:30;;;;;;;11.75;4.75;;;;;;;;;;4963444;28;20030;-66
2024/01/08 08:48:56;;;;;;;9.02;4.85;;;;;;;;;;4963452;28;20069;-66
2024/01/08 08:51:21;;;;;;;7.95;3.95;;;;;;;;;;4962453;28;20031;-66
2024/01/08 08:53:46;;;;;;;9.80;4.35;;;;;;;;;;4956638;28;20091;-67
2024/01/08 08:56:11;;;;;;;15.93;6.35;;;;;;;;;;4965200;28;20126;-67
2024/01/08 08:58:37;;;;;;;15.25;6.05;;;;;;;;;;4970395;28;20498;-68
2024/01/08 09:01:02;;;;;;;12.43;6.20;;;;;;;;;;4964077;28;20023;-67
2024/01/08 09:03:28;;;;;;;23.42;7.03;;;;;;;;;;4964761;28;20030;-67
2024/01/08 09:05:54;;;;;;;12.77;5.22;;;;;;;;;;4959722;28;20026;-67
2024/01/08 09:08:20;;;;;;;10.20;4.90;;;;;;;;;;4962186;28;20030;-67
2024/01/08 09:10:46;;;;;;;10.90;4.50;;;;;;;;;;4962342;28;20030;-67
2024/01/08 09:13:12;;;;;;;11.10;5.55;;;;;;;;;;4968505;28;20038;-67
2024/01/08 09:15:37;;;;;;;9.90;4.60;;;;;;;;;;4962986;28;20674;-67
2024/01/08 09:18:02;;;;;;;11.82;5.57;;;;;;;;;;4970727;28;20144;-67
2024/01/08 09:20:28;;;;;;;9.98;5.38;;;;;;;;;;4963788;28;20035;-67
2024/01/08 09:22:53;;;;;;;9.80;5.38;;;;;;;;;;4957154;28;20023;-67
2024/01/08 09:25:19;;;;;;;11.50;5.32;;;;;;;;;;4959190;28;20045;-67
2024/01/08 09:27:44;;;;;;;8.63;4.13;;;;;;;;;;4953718;28;20026;-68
2024/01/08 09:30:10;;;;;;;14.30;5.72;;;;;;;;;;4965032;28;20019;-67
2024/01/08 09:32:35;;;;;;;9.25;4.65;;;;;;;;;;4959287;28;20073;-68
2024/01/08 09:35:00;;;;;;;8.63;4.00;;;;;;;;;;4968747;28;20121;-67
2024/01/08 09:37:25;;;;;;;12.52;5.45;;;;;;;;;;4961195;28;20031;-68
2024/01/08 09:39:50;;;;;;;13.77;4.10;;;;;;;;;;4956007;28;20030;-67
2024/01/08 09:42:16;;;;;;;9.13;4.57;;;;;;;;;;4958898;28;20027;-67
2024/01/08 09:44:46;;;;;;;10.23;4.53;;;;;;;;;;4956566;28;20023;-67
2024/01/08 09:47:12;;;;;;;9.63;4.60;;;;;;;;;;4960613;28;20026;-69
2024/01/08 09:49:38;;;;;;;8.63;4.55;;;;;;;;;;4965600;28;20033;-67
2024/01/08 09:52:04;;;;;;;9.77;4.65;;;;;;;;;;4966284;28;20065;-67
2024/01/08 09:54:29;;;;;;;8.00;4.65;;;;;;;;;;4961564;28;20027;-67
2024/01/08 09:56:55;;;;;;;9.13;4.93;;;;;;;;;;4965948;28;20179;-67
2024/01/08 09:59:20;;;;;;;12.13;4.82;;;;;;;;;;4962273;28;20034;-68
2024/01/08 10:01:46;;;;;;;7.68;3.58;;;;;;;;;;4957505;28;20031;-68
2024/01/08 10:04:11;;;;;;;12.60;5.22;;;;;;;;;;4967956;28;20543;-68
2024/01/08 10:06:38;;;;;;;7.57;4.85;;;;;;;;;;4963268;28;20030;-67
2024/01/08 10:09:04;;;;;;;12.60;5.05;;;;;;;;;;4968610;28;20093;-67
2024/01/08 10:11:30;;;;;;;8.23;4.13;;;;;;;;;;4963870;28;20105;-68
2024/01/08 10:13:55;;;;;;;9.43;4.65;;;;;;;;;;4964726;28;20485;-68
2024/01/08 10:16:20;;;;;;;9.02;4.35;;;;;;;;;;4970187;28;20513;-67
2024/01/08 10:18:48;;;;;;;7.35;4.43;;;;;;;;;;4970869;28;20035;-68
2024/01/08 10:21:14;;;;;;;8.55;4.55;;;;;;;;;;4965020;28;20085;-68
2024/01/08 10:23:40;;;;;;;9.82;4.20;;;;;;;;;;4956731;28;20123;-68
2024/01/08 10:26:05;;;;;;;10.73;4.80;;;;;;;;;;4965013;28;20205;-67
2024/01/08 10:28:35;;;;;;;8.35;4.10;;;;;;;;;;4968312;28;20079;-67
2024/01/08 10:31:00;;;;;;;;;;;;;;;;;;4965485;28;20023;-67
2024/01/08 10:33:26;;;;;;;9.82;3.80;;;;;;;;;;4961425;28;19916;-68
2024/01/08 10:35:52;;;;;;;9.43;3.70;;;;;;;;;;4956844;28;20478;-68
2024/01/08 10:38:18;;;;;;;9.73;4.40;;;;;;;;;;4959047;28;20489;-67
2024/01/08 10:40:43;;;;;;;8.52;3.90;;;;;;;;;;4960763;28;20041;-67
2024/01/08 10:43:09;;;;;;;10.75;4.65;;;;;;;;;;4966851;28;20041;-67
2024/01/08 10:45:34;;;;;;;10.93;4.25;;;;;;;;;;4966999;28;20101;-67
2024/01/08 10:48:05;;;;;;;10.87;4.23;;;;;;;;;;4960296;28;20035;-67
2024/01/08 10:50:30;;;;;;;8.93;3.95;;;;;;;;;;4967728;28;20250;-67
2024/01/08 10:52:56;;;;;;;9.10;3.88;;;;;;;;;;4961175;28;20093;-67
2024/01/08 10:55:23;;;;;;;7.90;3.80;;;;;;;;;;4967089;28;20091;-67
2024/01/08 10:58:00;;;;;;;8.27;4.32;;;;;;;;;;4968868;28;20030;-68
2024/01/08 11:00:26;;;;;;;6.35;3.38;;;;;;;;;;4961896;28;20023;-67
2024/01/08 11:02:52;;;;;;;9.48;4.43;;;;;;;;;;4968093;28;20456;-67
2024/01/08 11:05:20;;;;;;;9.95;4.25;;;;;;;;;;4967098;28;20018;-68
2024/01/08 11:07:47;;;;;;;8.77;4.25;;;;;;;;;;4965752;28;20039;-67
2024/01/08 11:10:12;;;;;;;7.80;3.92;;;;;;;;;;4971105;28;20029;-67
2024/01/08 11:12:41;;;;;;;8.38;4.05;;;;;;;;;;4968515;28;20428;-68
2024/01/08 11:15:06;;;;;;;8.75;3.13;;;;;;;;;;4970403;28;20077;-68
2024/01/08 11:17:35;;;;;;;7.35;3.72;;;;;;;;;;4965335;28;20022;-67
2024/01/08 11:20:05;;;;;;;10.23;3.92;;;;;;;;;;4965362;28;20449;-67
2024/01/08 11:22:31;;;;;;;7.88;3.85;;;;;;;;;;4981324;28;20038;-67
2024/01/08 11:24:57;;;;;;;9.57;3.33;;;;;;;;;;4969839;28;20070;-68
2024/01/08 11:27:23;;;;;;;7.25;3.33;;;;;;;;;;4964818;28;20019;-68
2024/01/08 11:29:58;;;;;;;6.47;3.50;;;;;;;;;;4969654;28;20030;-68
2024/01/08 11:32:23;;;;;;;9.18;3.65;;;;;;;;;;4960758;28;20027;-67
2024/01/08 11:35:03;;;;;;;6.57;3.10;;;;;;;;;;4970084;28;20104;-68
2024/01/08 11:37:36;;;;;;;6.78;3.35;;;;;;;;;;4958929;28;20274;-68
2024/01/08 11:40:03;;;;;;;9.60;3.42;;;;;;;;;;4964324;28;20046;-68
2024/01/08 11:42:28;;;;;;;8.38;3.75;;;;;;;;;;4969876;28;20035;-68
2024/01/08 11:44:53;;;;;;;7.80;3.67;;;;;;;;;;4972233;28;20084;-68
2024/01/08 11:47:18;;;;;;;7.97;3.63;;;;;;;;;;4967213;28;20057;-68
2024/01/08 11:49:44;;;;;;;6.60;3.13;;;;;;;;;;4972387;28;20277;-67
2024/01/08 11:52:09;;;;;;;8.45;3.25;;;;;;;;;;4978085;28;20022;-67
2024/01/08 11:54:34;;;;;;;8.35;4.07;;;;;;;;;;4972079;28;20076;-68
2024/01/08 11:57:00;;;;;;;8.40;4.40;;;;;;;;;;4960987;28;20046;-67
2024/01/08 11:59:32;;;;;;;8.15;3.80;;;;;;;;;;4972714;28;20050;-67
2024/01/08 12:02:16;;;;;;;6.57;3.80;;;;;;;;;;4961099;28;20031;-67
2024/01/08 12:04:51;;;;;;;7.18;3.80;;;;;;;;;;4966834;28;20409;-67
2024/01/08 12:07:16;;;;;;;7.55;3.80;;;;;;;;;;4968018;28;20046;-67
2024/01/08 12:09:42;;;;;;;9.75;3.53;;;;;;;;;;4966242;28;20452;-67
2024/01/08 12:12:08;;;;;;;7.20;3.42;;;;;;;;;;4976416;28;20529;-67
2024/01/08 12:14:34;;;;;;;11.98;3.83;;;;;;;;;;4975737;28;20019;-67
2024/01/08 12:17:00;;;;;;;7.85;3.60;;;;;;;;;;4972995;28;20059;-67
2024/01/08 12:19:43;;;;;;;11.07;4.53;;;;;;;;;;4968073;28;20077;-67
2024/01/08 12:22:09;;;;;;;10.52;3.78;;;;;;;;;;4972838;28;20023;-67
2024/01/08 12:24:35;;;;;;;8.13;3.40;;;;;;;;;;4962166;28;20446;-67
2024/01/08 12:27:01;;;;;;;5.75;3.35;;;;;;;;;;4967844;28;20516;-67
2024/01/08 12:29:27;;;;;;;4.13;2.05;;;;;;;;;;4967389;28;20120;-67
2024/01/08 12:31:59;;;;;;;5.93;2.78;;;;;;;;;;4965219;28;20102;-68
2024/01/08 12:34:30;;;;;;;7.10;3.25;;;;;;;;;;4960044;28;20023;-68
2024/01/08 12:36:56;;;;;;;6.38;3.40;;;;;;;;;;4972376;28;20037;-67
2024/01/08 12:39:23;;;;;;;6.57;3.30;;;;;;;;;;4977163;28;20075;-66
2024/01/08 12:41:50;;;;;;;5.43;2.97;;;;;;;;;;4971081;28;20031;-67
2024/01/08 12:44:15;;;;;;;8.32;3.60;;;;;;;;;;4973503;28;20046;-67
2024/01/08 12:46:40;;;;;;;3.08;1.50;;;;;;;;;;4963214;28;20110;-67
2024/01/08 12:49:06;;;;;;;7.07;3.50;;;;;;;;;;4968757;28;20029;-68
2024/01/08 12:51:31;;;;;;;6.22;2.97;;;;;;;;;;4960437;28;20027;-68
2024/01/08 12:53:56;;;;;;;7.93;3.23;;;;;;;;;;4964115;28;20395;-68
2024/01/08 12:56:21;;;;;;;6.50;3.25;;;;;;;;;;4973821;28;20264;-68
2024/01/08 12:58:48;;;;;;;8.02;3.28;;;;;;;;;;4971909;28;20064;-68
2024/01/08 13:01:13;;;;;;;7.38;3.28;;;;;;;;;;4976239;28;20381;-68
2024/01/08 13:03:39;;;;;;;9.32;3.03;;;;;;;;;;4960741;28;20027;-68
2024/01/08 13:06:06;;;;;;;7.50;3.33;;;;;;;;;;4959217;28;20039;-67
2024/01/08 13:08:33;;;;;;;9.10;3.08;;;;;;;;;;4960269;28;20099;-68
2024/01/08 13:10:58;;;;;;;9.05;3.40;;;;;;;;;;4971254;28;20029;-68
2024/01/08 13:13:23;;;;;;;7.53;3.95;;;;;;;;;;4975544;28;20039;-68
2024/01/08 13:15:48;;;;;;;11.10;3.70;;;;;;;;;;4965551;28;20031;-67
2024/01/08 13:18:13;;;;;;;6.40;3.50;;;;;;;;;;4963137;28;20027;-68
2024/01/08 13:20:39;;;;;;;7.38;3.40;;;;;;;;;;4958642;28;20343;-68
2024/01/08 13:23:04;;;;;;;8.75;3.88;;;;;;;;;;4954627;28;20046;-68
2024/01/08 13:25:30;;;;;;;7.45;3.30;;;;;;;;;;4973546;28;20045;-68
2024/01/08 13:27:55;;;;;;;8.68;3.72;;;;;;;;;;4973200;28;20041;-67
2024/01/08 13:30:21;;;;;;;6.53;4.07;;;;;;;;;;4970589;28;20014;-67
2024/01/08 13:32:46;;;;;;;9.50;4.75;;;;;;;;;;4972968;28;20320;-68
2024/01/08 13:35:11;;;;;;;10.07;3.50;;;;;;;;;;4965296;28;20042;-68
2024/01/08 13:37:36;;;;;;;10.65;3.67;;;;;;;;;;4966277;28;20022;-68
2024/01/08 13:40:02;;;;;;;8.15;3.78;;;;;;;;;;4971547;28;20423;-68
2024/01/08 13:42:27;;;;;;;6.00;3.35;;;;;;;;;;4964714;28;20026;-68
2024/01/08 13:44:52;;;;;;;11.70;3.28;;;;;;;;;;4958073;28;20015;-68
2024/01/08 13:47:17;;;;;;;6.00;2.78;;;;;;;;;;4972262;28;20497;-68
2024/01/08 13:49:43;;;;;;;10.18;3.65;;;;;;;;;;4964778;28;20071;-70
2024/01/08 13:52:08;;;;;;;9.90;3.90;;;;;;;;;;4958985;28;20027;-69
2024/01/08 13:54:34;;;;;;;7.68;3.80;;;;;;;;;;4971718;28;20023;-68
2024/01/08 13:56:59;;;;;;;7.80;3.50;;;;;;;;;;4969381;28;20497;-68
2024/01/08 13:59:24;;;;;;;17.70;3.78;;;;;;;;;;4970760;28;20023;-70
2024/01/08 14:01:51;;;;;;;8.32;3.75;;;;;;;;;;4972754;28;20035;-68
2024/01/08 14:04:16;;;;;;;9.95;3.20;;;;;;;;;;4964613;28;20033;-68
2024/01/08 14:06:41;;;;;;;8.30;3.83;;;;;;;;;;4964024;28;20106;-69
2024/01/08 14:09:06;;;;;;;11.35;3.88;;;;;;;;;;4964833;28;20409;-68
2024/01/08 14:11:31;;;;;;;7.83;3.90;;;;;;;;;;4975702;28;20262;-68
2024/01/08 14:13:56;;;;;;;8.97;3.53;;;;;;;;;;4976968;28;20259;-68
2024/01/08 14:16:22;;;;;;;8.65;3.92;;;;;;;;;;4973791;28;20261;-68
2024/01/08 14:18:47;;;;;;;8.88;3.63;;;;;;;;;;4964629;28;20023;-68
2024/01/08 14:21:12;;;;;;;11.82;4.35;;;;;;;;;;4971488;28;20029;-68
2024/01/08 14:23:37;;;;;;;10.17;3.93;;;;;;;;;;4965086;28;20170;-68
2024/01/08 14:26:03;;;;;;;8.73;3.77;;;;;;;;;;4973587;28;20286;-68